地図

経路データ

SID SEASON NUMBER BASIN SUBBASIN NAME ISO_TIME NATURE LAT LON WMO_WIND WMO_PRES WMO_AGENCY TRACK_TYPE DIST2LAND LANDFALL IFLAG USA_AGENCY USA_ATCF_ID USA_LAT USA_LON USA_RECORD USA_STATUS USA_WIND USA_PRES USA_SSHS USA_R34_NE USA_R34_SE USA_R34_SW USA_R34_NW USA_R50_NE USA_R50_SE USA_R50_SW USA_R50_NW USA_R64_NE USA_R64_SE USA_R64_SW USA_R64_NW USA_POCI USA_ROCI USA_RMW USA_EYE TOKYO_LAT TOKYO_LON TOKYO_GRADE TOKYO_WIND TOKYO_PRES TOKYO_R50_DIR TOKYO_R50_LONG TOKYO_R50_SHORT TOKYO_R30_DIR TOKYO_R30_LONG TOKYO_R30_SHORT TOKYO_LAND CMA_LAT CMA_LON CMA_CAT CMA_WIND CMA_PRES HKO_LAT HKO_LON HKO_CAT HKO_WIND HKO_PRES NEWDELHI_LAT NEWDELHI_LON NEWDELHI_GRADE NEWDELHI_WIND NEWDELHI_PRES NEWDELHI_CI NEWDELHI_DP NEWDELHI_POCI REUNION_LAT REUNION_LON REUNION_TYPE REUNION_WIND REUNION_PRES REUNION_TNUM REUNION_CI REUNION_RMW REUNION_R34_NE REUNION_R34_SE REUNION_R34_SW REUNION_R34_NW REUNION_R50_NE REUNION_R50_SE REUNION_R50_SW REUNION_R50_NW REUNION_R64_NE REUNION_R64_SE REUNION_R64_SW REUNION_R64_NW BOM_LAT BOM_LON BOM_TYPE BOM_WIND BOM_PRES BOM_TNUM BOM_CI BOM_RMW BOM_R34_NE BOM_R34_SE BOM_R34_SW BOM_R34_NW BOM_R50_NE BOM_R50_SE BOM_R50_SW BOM_R50_NW BOM_R64_NE BOM_R64_SE BOM_R64_SW BOM_R64_NW BOM_ROCI BOM_POCI BOM_EYE BOM_POS_METHOD BOM_PRES_METHOD NADI_LAT NADI_LON NADI_CAT NADI_WIND NADI_PRES WELLINGTON_LAT WELLINGTON_LON WELLINGTON_WIND WELLINGTON_PRES DS824_LAT DS824_LON DS824_STAGE DS824_WIND DS824_PRES TD9636_LAT TD9636_LON TD9636_STAGE TD9636_WIND TD9636_PRES TD9635_LAT TD9635_LON TD9635_WIND TD9635_PRES TD9635_ROCI NEUMANN_LAT NEUMANN_LON NEUMANN_CLASS NEUMANN_WIND NEUMANN_PRES MLC_LAT MLC_LON MLC_CLASS MLC_WIND MLC_PRES USA_GUST BOM_GUST BOM_GUST_PER REUNION_GUST REUNION_GUST_PER USA_SEAHGT USA_SEARAD_NE USA_SEARAD_SE USA_SEARAD_SW USA_SEARAD_NW STORM_SPEED STORM_DIR
1915288N07129 1915 42 WP MM NOT_NAMED 1915-10-15 09:00:00 NR 6.60000 128.900 main 265 231 __________O___ -1 6.60000 128.900 4 15 342
1915288N07129 1915 42 WP MM NOT_NAMED 1915-10-15 12:00:00 NR 7.29533 128.668 main 231 201 __________P___ -1 7.29533 128.668 4 15 342
1915288N07129 1915 42 WP MM NOT_NAMED 1915-10-15 15:00:00 NR 8.02245 128.428 main 201 199 __________P___ -1 8.02245 128.428 4 16 342
1915288N07129 1915 42 WP MM NOT_NAMED 1915-10-15 18:00:00 NR 8.81331 128.175 main 205 189 __________P___ -1 8.81331 128.175 4 18 343
1915288N07129 1915 42 WP MM NOT_NAMED 1915-10-15 21:00:00 NR 9.70000 127.900 main 194 192 __________O___ -1 9.70000 127.900 4 20 344
1915288N07129 1915 42 WP MM NOT_NAMED 1915-10-16 00:00:00 NR 10.7045 127.607 main 199 180 __________P___ -1 10.7045 127.607 4 22 345
1915288N07129 1915 42 WP MM NOT_NAMED 1915-10-16 03:00:00 NR 11.8083 127.339 main 186 185 __________P___ -1 11.8083 127.339 4 23 349
1915288N07129 1915 42 WP MM NOT_NAMED 1915-10-16 06:00:00 NR 12.9828 127.152 main 205 200 __________P___ -1 12.9828 127.152 4 24 354
1915288N07129 1915 42 WP MM NOT_NAMED 1915-10-16 09:00:00 NR 14.2000 127.100 main 280 280 __________O___ -1 14.2000 127.100 4 23 359
1915288N07129 1915 42 WP MM NOT_NAMED 1915-10-16 12:00:00 NR 15.2916 127.110 main 330 330 __________P___ -1 15.2916 127.110 4 23 4
1915288N07129 1915 42 WP MM NOT_NAMED 1915-10-16 15:00:00 NR 16.4358 127.280 main 418 418 __________P___ -1 16.4358 127.280 4 25 12
1915288N07129 1915 42 WP MM NOT_NAMED 1915-10-16 18:00:00 NR 17.7119 127.659 main 551 551 __________P___ -1 17.7119 127.659 4 29 19
1915288N07129 1915 42 WP MM NOT_NAMED 1915-10-16 21:00:00 NR 19.2000 128.300 main 637 637 __________O___ -1 19.2000 128.300 4 36 25
1915288N07129 1915 42 WP MM NOT_NAMED 1915-10-17 00:00:00 NR 21.0090 129.254 main 788 788 __________P___ -1 21.0090 129.254 4 44 28
1915288N07129 1915 42 WP MM NOT_NAMED 1915-10-17 03:00:00 NR 23.0197 130.488 main 890 678 __________P___ -1 23.0197 130.488 4 48 31
1915288N07129 1915 42 WP MM NOT_NAMED 1915-10-17 06:00:00 NR 25.1194 131.904 main 669 503 __________P___ -1 25.1194 131.904 4 50 32
1915288N07129 1915 42 WP MM NOT_NAMED 1915-10-17 09:00:00 NR 27.2000 133.400 main 498 414 __________O___ -1 27.2000 133.400 4 50 33
1915288N07129 1915 42 WP MM NOT_NAMED 1915-10-17 12:00:00 NR 29.3205 134.955 main 416 243 __________P___ -1 29.3205 134.955 4 50 33
1915288N07129 1915 42 WP MM NOT_NAMED 1915-10-17 15:00:00 NR 31.3766 136.563 main 235 167 __________P___ -1 31.3766 136.563 4 47 35
1915288N07129 1915 42 WP MM NOT_NAMED 1915-10-17 18:00:00 NR 33.2182 138.096 main 156 28 __________P___ -1 33.2182 138.096 4 41 36
1915288N07129 1915 42 WP MM NOT_NAMED 1915-10-17 21:00:00 NR 34.7000 139.400 main 35 0 __________O___ -1 34.7000 139.400 4 30 37
1915288N07129 1915 42 WP MM NOT_NAMED 1915-10-18 00:00:00 NR 35.6522 140.301 main 0 0 __________P___ -1 35.6522 140.301 4 20 38
1915288N07129 1915 42 WP MM NOT_NAMED 1915-10-18 03:00:00 NR 36.2654 140.915 main 26 26 __________P___ -1 36.2654 140.915 4 13 39
1915288N07129 1915 42 WP MM NOT_NAMED 1915-10-18 06:00:00 NR 36.6970 141.344 main 42 41 __________P___ -1 36.6970 141.344 4 10 37
1915288N07129 1915 42 WP MM NOT_NAMED 1915-10-18 09:00:00 NR 37.1000 141.700 main 61 61 __________O___ -1 37.1000 141.700 4 10 34
1915288N07129 1915 42 WP MM NOT_NAMED 1915-10-18 12:00:00 NR 37.5528 142.063 main 93 82 __________P___ -1 37.5528 142.063 4 11 31
1915288N07129 1915 42 WP MM NOT_NAMED 1915-10-18 15:00:00 NR 38.0294 142.397 main 85 81 __________P___ -1 38.0294 142.397 4 12 28
1915288N07129 1915 42 WP MM NOT_NAMED 1915-10-18 18:00:00 NR 38.6415 142.805 main 97 92 __________P___ -1 38.6415 142.805 4 17 28
1915288N07129 1915 42 WP MM NOT_NAMED 1915-10-18 21:00:00 NR 39.5000 143.400 main 111 111 __________O___ -1 39.5000 143.400 4 24 30
1915288N07129 1915 42 WP MM NOT_NAMED 1915-10-19 00:00:00 NR 40.7227 144.333 main 161 101 __________P___ -1 40.7227 144.333 4 31 31
1915288N07129 1915 42 WP MM NOT_NAMED 1915-10-19 03:00:00 NR 42.1845 145.502 main 96 53 __________P___ -1 42.1845 145.502 4 36 31
1915288N07129 1915 42 WP MM NOT_NAMED 1915-10-19 06:00:00 NR 43.7781 146.848 main 68 0 __________P___ -1 43.7781 146.848 4 38 32
1915288N07129 1915 42 WP MM NOT_NAMED 1915-10-19 09:00:00 NR 45.4000 148.300 main 13 13 __________O___ -1 45.4000 148.300 4 38 33
1915288N07129 1915 42 WP MM NOT_NAMED 1915-10-19 12:00:00 NR 46.9709 149.792 main 104 104 __________P___ -1 46.9709 149.792 4 37 34
1915288N07129 1915 42 WP MM NOT_NAMED 1915-10-19 15:00:00 NR 48.4871 151.327 main 274 172 __________P___ -1 48.4871 151.327 4 36 35
1915288N07129 1915 42 WP MM NOT_NAMED 1915-10-19 18:00:00 NR 49.9605 152.922 main 163 106 __________P___ -1 49.9605 152.922 4 36 36
1915288N07129 1915 42 WP MM NOT_NAMED 1915-10-19 21:00:00 NR 51.4000 154.600 main 124 __________O___ -1 51.4000 154.600 4 36 36

デジタル台風データ・検索

IBTrACS Databaseについて

本データベースは、米国NOAAが公開する1842年以降の世界の熱帯低気圧のベストトラックデータアーカイブInternational Best Track Archive for Climate Stewardship (IBTrACS)を、ウェブで閲覧しやすい形式に変換したものです。

最終更新日:2021-10-21